createdAt,value
2018-11-03T00:02:43.568Z,7.10
2018-11-03T00:07:47.831Z,7.00
2018-11-03T00:12:52.057Z,6.80
2018-11-03T00:17:56.270Z,6.80
2018-11-03T00:23:00.600Z,7.00
2018-11-03T00:28:04.957Z,7.00
2018-11-03T00:33:09.218Z,6.90
2018-11-03T00:38:13.409Z,6.90
2018-11-03T00:43:17.579Z,6.90
2018-11-03T00:48:21.798Z,7.00
2018-11-03T00:53:25.996Z,6.90
2018-11-03T00:58:30.229Z,6.90
2018-11-03T01:03:34.403Z,6.90
2018-11-03T01:08:38.567Z,6.70
2018-11-03T01:13:42.723Z,6.80
2018-11-03T01:18:47.030Z,6.70
2018-11-03T01:23:51.224Z,6.80
2018-11-03T01:28:55.348Z,6.60
2018-11-03T01:33:59.658Z,6.80
2018-11-03T01:39:04.653Z,6.60
2018-11-03T01:44:09.330Z,6.80
2018-11-03T01:49:13.681Z,6.80
2018-11-03T01:54:18.087Z,6.80
2018-11-03T01:59:22.280Z,6.70
2018-11-03T02:04:26.534Z,6.80
2018-11-03T02:09:30.840Z,6.70
2018-11-03T02:14:35.107Z,6.70
2018-11-03T02:19:39.792Z,6.60
2018-11-03T02:24:44.109Z,6.70
2018-11-03T02:29:48.292Z,6.60
2018-11-03T02:34:52.469Z,6.60
2018-11-03T02:39:56.618Z,6.70
2018-11-03T02:45:00.797Z,6.60
2018-11-03T02:50:06.733Z,6.60
2018-11-03T02:55:10.911Z,6.60
2018-11-03T03:00:15.077Z,6.50
2018-11-03T03:05:19.461Z,6.50
2018-11-03T03:10:23.666Z,6.50
2018-11-03T03:15:27.831Z,6.10
2018-11-03T03:20:32.083Z,6.30
2018-11-03T03:25:36.583Z,6.20
2018-11-03T03:30:40.733Z,6.30
2018-11-03T03:35:44.988Z,6.40
2018-11-03T03:40:49.254Z,6.30
2018-11-03T03:45:53.467Z,6.30
2018-11-03T03:50:57.709Z,6.30
2018-11-03T03:56:01.934Z,6.20
2018-11-03T04:01:06.123Z,6.20
2018-11-03T04:06:10.298Z,6.10
2018-11-03T04:11:14.466Z,5.90
2018-11-03T04:16:18.627Z,6.10
2018-11-03T04:21:26.592Z,6.10
2018-11-03T04:26:31.250Z,6.00
2018-11-03T04:31:35.439Z,6.10
2018-11-03T04:36:39.625Z,6.00
2018-11-03T04:41:43.794Z,6.00
2018-11-03T04:46:48.029Z,5.80
2018-11-03T04:51:52.337Z,5.70
2018-11-03T04:56:56.501Z,5.50
2018-11-03T05:02:00.754Z,5.60
2018-11-03T05:07:05.087Z,5.70
2018-11-03T05:12:09.237Z,4.20
2018-11-03T05:17:13.379Z,3.90
2018-11-03T05:22:17.532Z,4.00
2018-11-03T05:27:21.690Z,4.20
2018-11-03T05:32:25.915Z,4.90
2018-11-03T05:37:30.172Z,4.50
2018-11-03T05:42:34.373Z,4.50
2018-11-03T05:47:38.516Z,5.00
2018-11-03T05:52:42.673Z,4.20
2018-11-03T05:57:46.847Z,5.00
2018-11-03T06:02:51.076Z,4.60
2018-11-03T06:07:55.644Z,3.70
2018-11-03T06:13:00.055Z,3.90
2018-11-03T06:18:04.495Z,4.60
2018-11-03T06:23:08.794Z,4.20
2018-11-03T06:28:12.949Z,4.50
2018-11-03T06:33:17.064Z,4.50
2018-11-03T06:38:21.981Z,3.70
2018-11-03T06:43:26.181Z,4.50
2018-11-03T06:48:30.454Z,4.60
2018-11-03T06:53:34.639Z,4.00
2018-11-03T06:58:38.825Z,3.80
2018-11-03T07:03:43.346Z,4.10
2018-11-03T07:08:47.578Z,3.60
2018-11-03T07:13:51.724Z,3.60
2018-11-03T07:18:55.873Z,4.30
2018-11-03T07:24:00.053Z,4.00
2018-11-03T07:29:04.323Z,4.40
2018-11-03T07:34:08.493Z,4.60
2018-11-03T07:39:12.686Z,4.90
2018-11-03T07:44:16.809Z,5.20
2018-11-03T07:49:21.020Z,5.40
2018-11-03T07:54:25.266Z,5.30
2018-11-03T07:59:29.428Z,5.40
2018-11-03T08:04:33.596Z,5.50
2018-11-03T08:09:37.842Z,5.40
2018-11-03T08:14:42.488Z,5.50
2018-11-03T08:19:46.676Z,5.70
2018-11-03T08:24:50.925Z,5.70
2018-11-03T08:29:55.099Z,5.60
2018-11-03T08:34:59.294Z,5.70
2018-11-03T08:40:03.989Z,5.50
2018-11-03T08:45:08.724Z,5.30
2018-11-03T08:50:13.536Z,5.80
2018-11-03T08:55:17.743Z,5.90
2018-11-03T09:00:21.974Z,6.00
2018-11-03T09:05:26.231Z,6.10
2018-11-03T09:10:30.449Z,6.10
2018-11-03T09:15:34.619Z,6.10
2018-11-03T09:20:38.835Z,6.20
2018-11-03T09:25:43.133Z,6.10
2018-11-03T09:30:47.388Z,6.00
2018-11-03T09:35:51.628Z,6.50
2018-11-03T09:40:56.038Z,6.30
2018-11-03T09:46:00.584Z,6.20
2018-11-03T09:51:04.811Z,6.40
2018-11-03T09:56:09.349Z,6.50
2018-11-03T10:01:13.516Z,6.60
2018-11-03T10:06:17.780Z,6.70
2018-11-03T10:11:22.234Z,6.80
2018-11-03T10:16:26.403Z,7.00
2018-11-03T10:21:30.668Z,7.00
2018-11-03T10:26:34.890Z,7.10
2018-11-03T10:31:39.158Z,7.10
2018-11-03T10:36:43.336Z,7.10
2018-11-03T10:41:47.529Z,7.10
2018-11-03T10:46:51.713Z,7.00
2018-11-03T10:51:55.922Z,7.30
2018-11-03T10:57:00.089Z,7.30
2018-11-03T11:02:09.621Z,7.40
2018-11-03T11:07:18.841Z,7.50
2018-11-03T11:12:28.493Z,7.50
2018-11-03T11:17:32.686Z,7.60
2018-11-03T11:22:36.935Z,7.70
2018-11-03T11:27:41.206Z,7.80
2018-11-03T11:32:45.547Z,8.00
2018-11-03T11:37:49.614Z,8.10
2018-11-03T11:42:53.956Z,8.20
2018-11-03T11:47:58.075Z,8.20
2018-11-03T11:53:02.288Z,8.40
2018-11-03T11:58:06.743Z,8.40
2018-11-03T12:03:10.919Z,8.50
2018-11-03T12:08:15.263Z,8.50
2018-11-03T12:13:19.499Z,8.60
2018-11-03T12:18:23.714Z,8.50
2018-11-03T12:23:28.462Z,8.70
2018-11-03T12:28:32.924Z,8.70
2018-11-03T12:33:37.095Z,8.80
2018-11-03T12:38:41.326Z,8.80
2018-11-03T12:43:45.608Z,9.00
2018-11-03T12:48:49.870Z,9.00
2018-11-03T12:53:54.381Z,9.00
2018-11-03T12:58:58.558Z,9.00
2018-11-03T13:04:02.840Z,8.90
2018-11-03T13:09:09.149Z,9.00
2018-11-03T13:14:13.300Z,9.00
2018-11-03T13:19:17.495Z,9.00
2018-11-03T13:24:21.655Z,9.00
2018-11-03T13:29:25.863Z,9.10
2018-11-03T13:34:30.081Z,9.00
2018-11-03T13:39:34.383Z,9.00
2018-11-03T13:44:38.641Z,9.10
2018-11-03T13:49:42.806Z,8.90
2018-11-03T13:54:46.978Z,8.90
2018-11-03T13:59:51.419Z,8.90
2018-11-03T14:04:55.697Z,9.00
2018-11-03T14:09:59.971Z,9.00
2018-11-03T14:15:04.270Z,9.00
2018-11-03T14:20:09.991Z,8.90
2018-11-03T14:25:15.537Z,8.90
2018-11-03T14:30:19.730Z,8.90
2018-11-03T14:35:23.922Z,8.80
2018-11-03T14:40:28.089Z,8.70
2018-11-03T14:45:32.622Z,8.70
2018-11-03T14:50:37.759Z,8.60
2018-11-03T14:55:42.241Z,8.60
2018-11-03T15:00:46.459Z,8.50
2018-11-03T15:05:50.780Z,8.40
2018-11-03T15:10:54.956Z,8.30
2018-11-03T15:15:59.154Z,8.30
2018-11-03T15:21:03.398Z,8.20
2018-11-03T15:26:07.731Z,8.10
2018-11-03T15:31:11.912Z,8.10
2018-11-03T15:36:16.087Z,8.00
2018-11-03T15:41:20.395Z,7.90
2018-11-03T15:46:24.578Z,7.80
2018-11-03T15:51:28.875Z,7.80
2018-11-03T15:56:33.128Z,7.70
2018-11-03T16:01:37.307Z,7.50
2018-11-03T16:06:41.495Z,7.30
2018-11-03T16:11:45.715Z,7.20
2018-11-03T16:16:50.021Z,7.10
2018-11-03T16:21:54.648Z,7.10
2018-11-03T16:26:58.844Z,7.30
2018-11-03T16:32:03.289Z,7.30
2018-11-03T16:37:07.423Z,7.00
2018-11-03T16:42:11.836Z,7.00
2018-11-03T16:47:16.233Z,6.90
2018-11-03T16:52:20.506Z,7.00
2018-11-03T16:57:24.804Z,6.90
2018-11-03T17:02:29.011Z,6.80
2018-11-03T17:07:33.246Z,7.00
2018-11-03T17:12:37.540Z,7.10
2018-11-03T17:17:41.704Z,6.90
2018-11-03T17:22:45.912Z,7.10
2018-11-03T17:27:50.175Z,7.20
2018-11-03T17:32:54.378Z,7.10
2018-11-03T17:37:58.711Z,7.10
2018-11-03T17:43:03.055Z,7.20
2018-11-03T17:48:07.273Z,6.80
2018-11-03T17:53:11.449Z,6.80
2018-11-03T17:58:15.754Z,4.80
2018-11-03T18:03:20.036Z,7.20
2018-11-03T18:08:24.329Z,7.00
2018-11-03T18:13:28.627Z,6.70
2018-11-03T18:18:32.993Z,6.80
2018-11-03T18:23:37.418Z,6.80
2018-11-03T18:28:41.577Z,6.60
2018-11-03T18:33:45.769Z,6.80
2018-11-03T18:38:49.954Z,6.60
2018-11-03T18:43:54.099Z,6.40
2018-11-03T18:48:58.354Z,6.20
2018-11-03T18:54:02.612Z,6.20
2018-11-03T18:59:07.296Z,6.10
2018-11-03T19:04:11.633Z,6.30
2018-11-03T19:09:15.894Z,6.30
2018-11-03T19:14:20.094Z,6.50
2018-11-03T19:19:24.352Z,6.50
2018-11-03T19:24:29.208Z,6.30
2018-11-03T19:29:33.491Z,6.10
2018-11-03T19:34:37.652Z,6.20
2018-11-03T19:39:41.869Z,6.40
2018-11-03T19:44:46.081Z,6.30
2018-11-03T19:49:51.661Z,6.40
2018-11-03T19:54:55.840Z,6.30
2018-11-03T20:00:00.105Z,6.10
2018-11-03T20:05:04.694Z,6.00
2018-11-03T20:10:09.936Z,5.90
2018-11-03T20:15:14.553Z,5.80
2018-11-03T20:20:18.836Z,5.60
2018-11-03T20:25:23.613Z,5.70
2018-11-03T20:30:27.982Z,5.70
2018-11-03T20:35:32.275Z,5.40
2018-11-03T20:40:36.487Z,5.40
2018-11-03T20:45:40.707Z,5.50
2018-11-03T20:50:44.978Z,5.80
2018-11-03T20:55:49.197Z,5.80
2018-11-03T21:00:53.378Z,5.50
2018-11-03T21:05:57.666Z,5.60
2018-11-03T21:11:01.884Z,5.50
2018-11-03T21:16:06.425Z,5.40
2018-11-03T21:21:10.609Z,5.30
2018-11-03T21:26:14.779Z,4.90
2018-11-03T21:31:19.008Z,4.80
2018-11-03T21:36:24.130Z,5.00
2018-11-03T21:41:28.318Z,5.20
2018-11-03T21:46:33.573Z,5.00
2018-11-03T21:51:38.076Z,5.20
2018-11-03T21:56:42.284Z,5.30
2018-11-03T22:01:46.496Z,5.20
2018-11-03T22:06:51.435Z,5.30
2018-11-03T22:11:55.720Z,5.30
2018-11-03T22:16:59.993Z,4.70
2018-11-03T22:22:04.485Z,4.50
2018-11-03T22:27:08.679Z,4.30
2018-11-03T22:32:12.860Z,4.60
2018-11-03T22:37:17.170Z,4.80
2018-11-03T22:42:21.334Z,4.80
2018-11-03T22:47:25.508Z,4.40
2018-11-03T22:52:29.912Z,4.30
2018-11-03T22:57:34.148Z,4.30
2018-11-03T23:02:38.425Z,4.60
2018-11-03T23:07:42.791Z,4.50
2018-11-03T23:12:47.020Z,4.40
2018-11-03T23:17:51.110Z,4.70
2018-11-03T23:22:55.576Z,4.70
2018-11-03T23:27:59.762Z,4.10
2018-11-03T23:33:04.008Z,4.40
2018-11-03T23:38:08.227Z,4.80
2018-11-03T23:43:12.372Z,4.60
2018-11-03T23:48:16.615Z,4.60
2018-11-03T23:53:20.849Z,4.50
2018-11-03T23:58:24.949Z,4.00
